sensor_id;sensor_type;location;lat;lon;timestamp;pressure;altitude;pressure_sealevel;temperature;humidity
16331;BME280;8275;48.206;16.340;2022-08-01T00:01:31;99027.31;;;27.00;35.77
16331;BME280;8275;48.206;16.340;2022-08-01T00:04:00;99022.44;;;26.97;36.04
16331;BME280;8275;48.206;16.340;2022-08-01T00:06:29;99020.34;;;26.94;35.97
16331;BME280;8275;48.206;16.340;2022-08-01T00:08:59;99024.72;;;26.92;36.04
16331;BME280;8275;48.206;16.340;2022-08-01T00:11:27;99023.44;;;26.89;36.20
16331;BME280;8275;48.206;16.340;2022-08-01T00:13:56;99019.38;;;26.87;36.29
16331;BME280;8275;48.206;16.340;2022-08-01T00:16:24;99016.13;;;26.85;36.54
16331;BME280;8275;48.206;16.340;2022-08-01T00:18:53;99021.69;;;26.81;36.56
16331;BME280;8275;48.206;16.340;2022-08-01T00:21:21;99018.78;;;26.78;36.72
16331;BME280;8275;48.206;16.340;2022-08-01T00:23:50;99015.44;;;26.72;36.98
16331;BME280;8275;48.206;16.340;2022-08-01T00:26:20;99013.75;;;26.68;36.76
16331;BME280;8275;48.206;16.340;2022-08-01T00:28:48;99018.84;;;26.62;37.31
16331;BME280;8275;48.206;16.340;2022-08-01T00:31:17;99013.97;;;26.59;37.09
16331;BME280;8275;48.206;16.340;2022-08-01T00:33:47;99013.06;;;26.55;37.43
16331;BME280;8275;48.206;16.340;2022-08-01T00:36:15;99007.38;;;26.52;37.45
16331;BME280;8275;48.206;16.340;2022-08-01T00:38:44;99016.53;;;26.48;37.53
16331;BME280;8275;48.206;16.340;2022-08-01T00:41:12;99014.44;;;26.45;37.47
16331;BME280;8275;48.206;16.340;2022-08-01T00:43:42;99013.22;;;26.43;37.99
16331;BME280;8275;48.206;16.340;2022-08-01T00:46:10;99011.56;;;26.42;38.05
16331;BME280;8275;48.206;16.340;2022-08-01T00:48:39;99011.94;;;26.40;37.73
16331;BME280;8275;48.206;16.340;2022-08-01T00:51:08;99015.53;;;26.41;37.65
16331;BME280;8275;48.206;16.340;2022-08-01T00:53:36;99011.94;;;26.40;38.09
16331;BME280;8275;48.206;16.340;2022-08-01T00:56:19;99013.13;;;26.39;37.55
16331;BME280;8275;48.206;16.340;2022-08-01T00:58:49;99011.13;;;26.40;38.14
16331;BME280;8275;48.206;16.340;2022-08-01T01:01:19;99014.38;;;26.42;37.81
16331;BME280;8275;48.206;16.340;2022-08-01T01:03:49;99011.94;;;26.40;37.84
16331;BME280;8275;48.206;16.340;2022-08-01T01:06:34;99016.31;;;26.38;37.99
16331;BME280;8275;48.206;16.340;2022-08-01T01:09:17;99013.41;;;26.34;37.82
16331;BME280;8275;48.206;16.340;2022-08-01T01:11:58;99012.94;;;26.32;38.11
16331;BME280;8275;48.206;16.340;2022-08-01T01:14:38;99016.47;;;26.29;37.89
16331;BME280;8275;48.206;16.340;2022-08-01T01:17:13;99010.88;;;26.29;38.10
16331;BME280;8275;48.206;16.340;2022-08-01T01:19:57;99019.28;;;26.29;38.23
16331;BME280;8275;48.206;16.340;2022-08-01T01:22:50;99013.59;;;26.26;38.18
16331;BME280;8275;48.206;16.340;2022-08-01T01:25:39;99023.19;;;26.25;38.21
16331;BME280;8275;48.206;16.340;2022-08-01T01:28:17;99015.25;;;26.27;38.25
16331;BME280;8275;48.206;16.340;2022-08-01T01:30:53;99004.81;;;26.27;38.25
16331;BME280;8275;48.206;16.340;2022-08-01T01:33:25;99007.25;;;26.29;38.82
16331;BME280;8275;48.206;16.340;2022-08-01T01:36:00;99008.44;;;26.28;38.56
16331;BME280;8275;48.206;16.340;2022-08-01T01:38:42;99002.44;;;26.29;38.92
16331;BME280;8275;48.206;16.340;2022-08-01T01:41:14;99001.72;;;26.32;38.48
16331;BME280;8275;48.206;16.340;2022-08-01T01:43:44;99002.59;;;26.36;38.31
16331;BME280;8275;48.206;16.340;2022-08-01T01:46:20;98996.63;;;26.38;38.88
16331;BME280;8275;48.206;16.340;2022-08-01T01:48:50;98989.91;;;26.42;38.66
16331;BME280;8275;48.206;16.340;2022-08-01T01:51:22;98996.84;;;26.48;38.62
16331;BME280;8275;48.206;16.340;2022-08-01T01:53:53;99000.22;;;26.54;38.61
16331;BME280;8275;48.206;16.340;2022-08-01T01:56:24;98997.47;;;26.58;38.57
16331;BME280;8275;48.206;16.340;2022-08-01T01:58:55;98998.00;;;26.63;38.51
16331;BME280;8275;48.206;16.340;2022-08-01T02:01:29;98985.66;;;26.68;38.79
16331;BME280;8275;48.206;16.340;2022-08-01T02:04:20;98990.97;;;26.73;38.61
16331;BME280;8275;48.206;16.340;2022-08-01T02:06:52;98996.31;;;26.78;38.76
16331;BME280;8275;48.206;16.340;2022-08-01T02:09:22;98988.78;;;26.82;38.25
16331;BME280;8275;48.206;16.340;2022-08-01T02:11:51;98998.91;;;26.86;38.44
16331;BME280;8275;48.206;16.340;2022-08-01T02:14:36;98989.28;;;26.87;38.57
16331;BME280;8275;48.206;16.340;2022-08-01T02:17:10;98996.16;;;26.90;38.83
16331;BME280;8275;48.206;16.340;2022-08-01T02:19:40;98982.97;;;26.94;38.34
16331;BME280;8275;48.206;16.340;2022-08-01T02:22:12;98991.88;;;26.96;38.69
16331;BME280;8275;48.206;16.340;2022-08-01T02:24:46;98988.31;;;26.99;38.05
16331;BME280;8275;48.206;16.340;2022-08-01T02:27:24;98987.97;;;27.00;38.19
16331;BME280;8275;48.206;16.340;2022-08-01T02:29:59;98978.75;;;27.03;38.40
16331;BME280;8275;48.206;16.340;2022-08-01T02:32:36;98979.56;;;27.04;38.25
16331;BME280;8275;48.206;16.340;2022-08-01T02:35:09;98978.47;;;27.08;37.81
16331;BME280;8275;48.206;16.340;2022-08-01T02:37:40;98974.91;;;27.11;37.82
16331;BME280;8275;48.206;16.340;2022-08-01T02:40:13;98978.16;;;27.13;37.63
16331;BME280;8275;48.206;16.340;2022-08-01T02:42:47;98974.97;;;27.15;37.96
16331;BME280;8275;48.206;16.340;2022-08-01T02:45:19;98972.97;;;27.15;37.53
16331;BME280;8275;48.206;16.340;2022-08-01T02:47:50;98980.25;;;27.17;37.97
16331;BME280;8275;48.206;16.340;2022-08-01T02:50:20;98983.09;;;27.20;37.48
16331;BME280;8275;48.206;16.340;2022-08-01T02:52:51;98983.53;;;27.22;37.81
16331;BME280;8275;48.206;16.340;2022-08-01T02:55:21;98979.56;;;27.23;37.30
16331;BME280;8275;48.206;16.340;2022-08-01T02:57:50;98981.16;;;27.24;37.61
16331;BME280;8275;48.206;16.340;2022-08-01T03:00:27;98981.97;;;27.25;37.69
16331;BME280;8275;48.206;16.340;2022-08-01T03:02:57;98980.00;;;27.25;37.28
16331;BME280;8275;48.206;16.340;2022-08-01T03:05:27;98977.63;;;27.27;37.22
16331;BME280;8275;48.206;16.340;2022-08-01T03:07:56;98975.22;;;27.29;37.25
16331;BME280;8275;48.206;16.340;2022-08-01T03:10:31;98979.69;;;27.30;37.59
16331;BME280;8275;48.206;16.340;2022-08-01T03:13:00;98980.13;;;27.32;37.38
16331;BME280;8275;48.206;16.340;2022-08-01T03:15:32;98976.09;;;27.33;37.33
16331;BME280;8275;48.206;16.340;2022-08-01T03:18:05;98970.13;;;27.35;37.38
16331;BME280;8275;48.206;16.340;2022-08-01T03:20:35;98979.03;;;27.37;37.05
16331;BME280;8275;48.206;16.340;2022-08-01T03:23:06;98972.94;;;27.35;37.12
16331;BME280;8275;48.206;16.340;2022-08-01T03:25:40;98971.72;;;27.36;37.13
16331;BME280;8275;48.206;16.340;2022-08-01T03:28:13;98969.31;;;27.34;37.22
16331;BME280;8275;48.206;16.340;2022-08-01T03:30:42;98965.28;;;27.35;36.89
16331;BME280;8275;48.206;16.340;2022-08-01T03:33:13;98972.13;;;27.34;37.30
16331;BME280;8275;48.206;16.340;2022-08-01T03:35:46;98972.50;;;27.33;37.08
16331;BME280;8275;48.206;16.340;2022-08-01T03:38:19;98964.06;;;27.33;36.89
16331;BME280;8275;48.206;16.340;2022-08-01T03:40:53;98957.63;;;27.32;36.77
16331;BME280;8275;48.206;16.340;2022-08-01T03:43:29;98963.25;;;27.32;36.99
16331;BME280;8275;48.206;16.340;2022-08-01T03:46:04;98956.78;;;27.32;37.12
16331;BME280;8275;48.206;16.340;2022-08-01T03:48:42;98960.44;;;27.32;37.22
16331;BME280;8275;48.206;16.340;2022-08-01T03:51:12;98961.69;;;27.35;36.87
16331;BME280;8275;48.206;16.340;2022-08-01T03:53:42;98954.03;;;27.35;36.86
16331;BME280;8275;48.206;16.340;2022-08-01T03:56:14;98959.66;;;27.35;36.56
16331;BME280;8275;48.206;16.340;2022-08-01T03:58:46;98962.16;;;27.37;36.73
16331;BME280;8275;48.206;16.340;2022-08-01T04:01:17;98965.41;;;27.39;37.07
16331;BME280;8275;48.206;16.340;2022-08-01T04:03:47;98962.16;;;27.37;37.15
16331;BME280;8275;48.206;16.340;2022-08-01T04:06:16;98968.66;;;27.41;37.03
16331;BME280;8275;48.206;16.340;2022-08-01T04:08:44;98966.66;;;27.41;36.71
16331;BME280;8275;48.206;16.340;2022-08-01T04:11:24;98966.66;;;27.41;37.00
16331;BME280;8275;48.206;16.340;2022-08-01T04:13:55;98974.34;;;27.44;36.51
16331;BME280;8275;48.206;16.340;2022-08-01T04:16:24;98971.16;;;27.46;36.78
16331;BME280;8275;48.206;16.340;2022-08-01T04:18:54;98975.22;;;27.48;36.73
16331;BME280;8275;48.206;16.340;2022-08-01T04:21:26;98978.47;;;27.50;36.45
16331;BME280;8275;48.206;16.340;2022-08-01T04:24:12;98981.28;;;27.50;36.77
16331;BME280;8275;48.206;16.340;2022-08-01T04:26:44;98987.41;;;27.56;36.64
16331;BME280;8275;48.206;16.340;2022-08-01T04:29:16;98990.28;;;27.59;36.10
16331;BME280;8275;48.206;16.340;2022-08-01T04:31:47;98985.53;;;27.63;36.40
16331;BME280;8275;48.206;16.340;2022-08-01T04:34:25;98996.44;;;27.65;36.33
16331;BME280;8275;48.206;16.340;2022-08-01T04:36:55;98989.66;;;27.69;36.23
16331;BME280;8275;48.206;16.340;2022-08-01T04:39:25;98988.53;;;27.74;35.88
16331;BME280;8275;48.206;16.340;2022-08-01T04:41:55;98986.19;;;27.79;35.74
16331;BME280;8275;48.206;16.340;2022-08-01T04:44:25;98983.88;;;27.85;35.69
16331;BME280;8275;48.206;16.340;2022-08-01T04:46:59;98987.56;;;27.89;35.81
16331;BME280;8275;48.206;16.340;2022-08-01T04:49:34;98980.78;;;27.94;35.54
16331;BME280;8275;48.206;16.340;2022-08-01T04:52:15;98993.84;;;28.02;35.94
16331;BME280;8275;48.206;16.340;2022-08-01T04:54:50;98991.94;;;28.09;35.38
16331;BME280;8275;48.206;16.340;2022-08-01T04:57:19;98994.03;;;28.16;35.26
16331;BME280;8275;48.206;16.340;2022-08-01T04:59:47;98988.91;;;28.21;35.41
16331;BME280;8275;48.206;16.340;2022-08-01T05:02:17;98988.19;;;28.28;35.32
16331;BME280;8275;48.206;16.340;2022-08-01T05:04:47;98981.84;;;28.34;35.11
16331;BME280;8275;48.206;16.340;2022-08-01T05:07:16;98985.56;;;28.42;35.12
16331;BME280;8275;48.206;16.340;2022-08-01T05:09:44;98986.06;;;28.47;35.00
16331;BME280;8275;48.206;16.340;2022-08-01T05:12:14;98988.16;;;28.54;35.14
16331;BME280;8275;48.206;16.340;2022-08-01T05:14:43;98978.59;;;28.59;35.40
16331;BME280;8275;48.206;16.340;2022-08-01T05:17:11;98985.09;;;28.63;35.19
16331;BME280;8275;48.206;16.340;2022-08-01T05:19:41;98986.75;;;28.67;34.74
16331;BME280;8275;48.206;16.340;2022-08-01T05:22:12;98979.59;;;28.73;34.76
16331;BME280;8275;48.206;16.340;2022-08-01T05:24:40;98988.50;;;28.79;35.01
16331;BME280;8275;48.206;16.340;2022-08-01T05:27:11;98991.81;;;28.84;34.65
16331;BME280;8275;48.206;16.340;2022-08-01T05:29:42;98986.22;;;28.88;34.60
16331;BME280;8275;48.206;16.340;2022-08-01T05:32:11;98994.72;;;28.91;34.69
16331;BME280;8275;48.206;16.340;2022-08-01T05:34:40;98992.75;;;28.95;35.01
16331;BME280;8275;48.206;16.340;2022-08-01T05:37:08;98991.59;;;29.00;34.50
16331;BME280;8275;48.206;16.340;2022-08-01T05:39:38;98989.25;;;29.05;34.88
16331;BME280;8275;48.206;16.340;2022-08-01T05:42:07;98994.53;;;29.10;34.89
16331;BME280;8275;48.206;16.340;2022-08-01T05:44:35;98992.59;;;29.14;34.62
16331;BME280;8275;48.206;16.340;2022-08-01T05:47:04;98993.06;;;29.20;34.46
16331;BME280;8275;48.206;16.340;2022-08-01T05:49:32;98985.88;;;29.26;34.45
16331;BME280;8275;48.206;16.340;2022-08-01T05:52:01;98987.16;;;29.32;34.73
16331;BME280;8275;48.206;16.340;2022-08-01T05:54:30;98983.59;;;29.39;34.38
16331;BME280;8275;48.206;16.340;2022-08-01T05:57:00;98986.88;;;29.44;34.12
16331;BME280;8275;48.206;16.340;2022-08-01T05:59:29;98982.88;;;29.49;34.10
16331;BME280;8275;48.206;16.340;2022-08-01T06:01:57;98989.78;;;29.55;34.10
16331;BME280;8275;48.206;16.340;2022-08-01T06:04:26;98993.88;;;29.61;34.09
16331;BME280;8275;48.206;16.340;2022-08-01T06:06:54;98995.56;;;29.69;33.95
16331;BME280;8275;48.206;16.340;2022-08-01T06:09:23;99000.50;;;29.75;33.80
16331;BME280;8275;48.206;16.340;2022-08-01T06:11:51;99001.78;;;29.81;33.54
16331;BME280;8275;48.206;16.340;2022-08-01T06:14:21;99005.84;;;29.88;33.27
16331;BME280;8275;48.206;16.340;2022-08-01T06:16:49;99006.69;;;29.92;32.90
16331;BME280;8275;48.206;16.340;2022-08-01T06:19:18;98999.03;;;29.96;32.71
16331;BME280;8275;48.206;16.340;2022-08-01T06:21:46;99005.50;;;29.96;32.57
16331;BME280;8275;48.206;16.340;2022-08-01T06:24:14;99013.22;;;29.99;32.86
16331;BME280;8275;48.206;16.340;2022-08-01T06:26:43;99008.41;;;30.03;33.05
16331;BME280;8275;48.206;16.340;2022-08-01T06:29:11;99010.88;;;30.08;32.81
16331;BME280;8275;48.206;16.340;2022-08-01T06:31:41;99006.84;;;30.13;32.65
16331;BME280;8275;48.206;16.340;2022-08-01T06:34:10;99010.94;;;30.19;32.44
16331;BME280;8275;48.206;16.340;2022-08-01T06:36:38;99013.00;;;30.25;32.44
16331;BME280;8275;48.206;16.340;2022-08-01T06:39:07;99014.25;;;30.31;32.13
16331;BME280;8275;48.206;16.340;2022-08-01T06:41:35;99013.09;;;30.36;32.25
16331;BME280;8275;48.206;16.340;2022-08-01T06:44:04;99011.94;;;30.44;32.42
16331;BME280;8275;48.206;16.340;2022-08-01T06:46:32;99012.84;;;30.55;31.96
16331;BME280;8275;48.206;16.340;2022-08-01T06:49:03;99012.06;;;30.65;32.00
16331;BME280;8275;48.206;16.340;2022-08-01T06:51:32;99012.91;;;30.73;31.85
16331;BME280;8275;48.206;16.340;2022-08-01T06:54:01;99011.72;;;30.81;31.71
16331;BME280;8275;48.206;16.340;2022-08-01T06:56:29;99017.00;;;30.86;31.34
16331;BME280;8275;48.206;16.340;2022-08-01T06:58:57;99010.59;;;30.92;31.07
16331;BME280;8275;48.206;16.340;2022-08-01T07:01:28;99009.44;;;31.00;31.10
16331;BME280;8275;48.206;16.340;2022-08-01T07:04:02;99014.34;;;31.14;31.14
16331;BME280;8275;48.206;16.340;2022-08-01T07:06:31;99005.47;;;31.30;30.93
16331;BME280;8275;48.206;16.340;2022-08-01T07:08:59;99012.00;;;31.48;30.76
16331;BME280;8275;48.206;16.340;2022-08-01T07:11:38;99005.19;;;31.63;30.29
16331;BME280;8275;48.206;16.340;2022-08-01T07:14:06;99012.47;;;31.74;30.13
16331;BME280;8275;48.206;16.340;2022-08-01T07:16:35;99004.00;;;31.88;30.23
16331;BME280;8275;48.206;16.340;2022-08-01T07:19:05;99010.88;;;32.05;29.91
16331;BME280;8275;48.206;16.340;2022-08-01T07:21:33;99002.78;;;32.25;30.15
16331;BME280;8275;48.206;16.340;2022-08-01T07:24:09;99005.16;;;32.40;28.58
16331;BME280;8275;48.206;16.340;2022-08-01T07:26:42;99005.97;;;32.48;28.54
16331;BME280;8275;48.206;16.340;2022-08-01T07:29:22;99005.56;;;32.60;28.70
16331;BME280;8275;48.206;16.340;2022-08-01T07:31:51;99011.19;;;32.71;28.82
16331;BME280;8275;48.206;16.340;2022-08-01T07:34:23;99017.28;;;32.76;28.37
16331;BME280;8275;48.206;16.340;2022-08-01T07:36:53;99017.66;;;32.78;28.16
16331;BME280;8275;48.206;16.340;2022-08-01T07:39:21;99016.06;;;32.74;28.04
16331;BME280;8275;48.206;16.340;2022-08-01T07:41:50;99023.38;;;32.64;28.36
16331;BME280;8275;48.206;16.340;2022-08-01T07:44:34;99025.81;;;32.48;28.22
16331;BME280;8275;48.206;16.340;2022-08-01T07:47:03;99031.09;;;32.35;28.17
16331;BME280;8275;48.206;16.340;2022-08-01T07:49:34;99021.41;;;32.22;28.26
16331;BME280;8275;48.206;16.340;2022-08-01T07:52:06;99030.72;;;32.09;28.53
16331;BME280;8275;48.206;16.340;2022-08-01T07:54:35;99026.66;;;31.96;28.72
16331;BME280;8275;48.206;16.340;2022-08-01T07:57:04;99031.09;;;31.82;29.28
16331;BME280;8275;48.206;16.340;2022-08-01T07:59:33;99031.47;;;31.70;29.27
16331;BME280;8275;48.206;16.340;2022-08-01T08:02:02;99035.13;;;31.60;29.16
16331;BME280;8275;48.206;16.340;2022-08-01T08:04:32;99037.91;;;31.50;29.22
16331;BME280;8275;48.206;16.340;2022-08-01T08:07:01;99034.63;;;31.41;29.70
16331;BME280;8275;48.206;16.340;2022-08-01T08:09:30;99036.63;;;31.33;29.88
16331;BME280;8275;48.206;16.340;2022-08-01T08:12:05;99043.09;;;31.30;30.21
16331;BME280;8275;48.206;16.340;2022-08-01T08:14:35;99041.47;;;31.33;30.13
16331;BME280;8275;48.206;16.340;2022-08-01T08:17:04;99041.47;;;31.36;30.21
16331;BME280;8275;48.206;16.340;2022-08-01T08:19:34;99040.75;;;31.43;30.02
16331;BME280;8275;48.206;16.340;2022-08-01T08:22:06;99043.56;;;31.50;30.15
16331;BME280;8275;48.206;16.340;2022-08-01T08:24:36;99048.47;;;31.60;29.95
16331;BME280;8275;48.206;16.340;2022-08-01T08:27:12;99049.69;;;31.73;29.91
16331;BME280;8275;48.206;16.340;2022-08-01T08:29:41;99045.28;;;31.86;30.01
16331;BME280;8275;48.206;16.340;2022-08-01T08:32:11;99044.47;;;31.96;29.84
16331;BME280;8275;48.206;16.340;2022-08-01T08:34:41;99046.91;;;32.08;29.69
16331;BME280;8275;48.206;16.340;2022-08-01T08:37:10;99040.03;;;32.23;29.73
16331;BME280;8275;48.206;16.340;2022-08-01T08:39:40;99038.78;;;32.42;29.21
16331;BME280;8275;48.206;16.340;2022-08-01T08:42:09;99040.41;;;32.61;29.17
16331;BME280;8275;48.206;16.340;2022-08-01T08:44:41;99047.25;;;32.81;28.85
16331;BME280;8275;48.206;16.340;2022-08-01T08:47:12;99045.56;;;33.08;29.11
16331;BME280;8275;48.206;16.340;2022-08-01T08:49:50;99038.13;;;33.35;28.93
16331;BME280;8275;48.206;16.340;2022-08-01T08:52:20;99036.38;;;33.62;28.24
16331;BME280;8275;48.206;16.340;2022-08-01T08:54:50;99031.34;;;33.84;28.08
16331;BME280;8275;48.206;16.340;2022-08-01T08:57:20;99030.00;;;33.99;27.88
16331;BME280;8275;48.206;16.340;2022-08-01T08:59:50;99035.59;;;34.13;27.59
16331;BME280;8275;48.206;16.340;2022-08-01T09:02:21;99044.44;;;34.26;27.21
16331;BME280;8275;48.206;16.340;2022-08-01T09:04:51;99036.69;;;34.30;26.54
16331;BME280;8275;48.206;16.340;2022-08-01T09:07:20;99034.59;;;34.34;26.56
16331;BME280;8275;48.206;16.340;2022-08-01T09:09:50;99037.06;;;34.32;26.96
16331;BME280;8275;48.206;16.340;2022-08-01T09:12:19;99034.16;;;34.35;26.73
16331;BME280;8275;48.206;16.340;2022-08-01T09:14:48;99037.31;;;34.44;26.55
16331;BME280;8275;48.206;16.340;2022-08-01T09:17:21;99034.47;;;34.48;26.31
16331;BME280;8275;48.206;16.340;2022-08-01T09:19:53;99038.56;;;34.43;25.91
16331;BME280;8275;48.206;16.340;2022-08-01T09:22:25;99038.56;;;34.43;26.25
16331;BME280;8275;48.206;16.340;2022-08-01T09:25:00;99043.97;;;34.31;26.44
16331;BME280;8275;48.206;16.340;2022-08-01T09:27:29;99048.88;;;34.27;26.40
16331;BME280;8275;48.206;16.340;2022-08-01T09:30:11;99049.69;;;34.27;26.64
16331;BME280;8275;48.206;16.340;2022-08-01T09:32:55;99049.56;;;34.41;26.84
16331;BME280;8275;48.206;16.340;2022-08-01T09:35:29;99058.88;;;34.45;26.12
16331;BME280;8275;48.206;16.340;2022-08-01T09:38:15;99052.06;;;34.36;26.40
16331;BME280;8275;48.206;16.340;2022-08-01T09:40:55;99048.47;;;34.28;27.05
16331;BME280;8275;48.206;16.340;2022-08-01T09:43:26;99045.59;;;34.28;26.70
16331;BME280;8275;48.206;16.340;2022-08-01T09:45:55;99054.56;;;34.30;26.56
16331;BME280;8275;48.206;16.340;2022-08-01T09:48:25;99049.22;;;34.36;26.94
16331;BME280;8275;48.206;16.340;2022-08-01T09:50:58;99050.38;;;34.42;26.35
16331;BME280;8275;48.206;16.340;2022-08-01T09:53:44;99052.81;;;34.43;26.62
16331;BME280;8275;48.206;16.340;2022-08-01T09:56:19;99043.84;;;34.45;26.46
16331;BME280;8275;48.206;16.340;2022-08-01T09:58:51;99047.88;;;34.47;26.49
16331;BME280;8275;48.206;16.340;2022-08-01T10:01:26;99043.72;;;34.63;26.51
16331;BME280;8275;48.206;16.340;2022-08-01T10:04:10;99049.56;;;34.82;26.68
16331;BME280;8275;48.206;16.340;2022-08-01T10:06:45;99059.69;;;34.87;25.77
16331;BME280;8275;48.206;16.340;2022-08-01T10:09:27;99052.50;;;34.75;25.71
16331;BME280;8275;48.206;16.340;2022-08-01T10:12:08;99055.34;;;34.75;25.88
16331;BME280;8275;48.206;16.340;2022-08-01T10:14:43;99037.34;;;34.85;26.32
16331;BME280;8275;48.206;16.340;2022-08-01T10:17:18;99038.88;;;34.93;25.71
16331;BME280;8275;48.206;16.340;2022-08-01T10:19:49;99040.88;;;34.96;25.69
16331;BME280;8275;48.206;16.340;2022-08-01T10:22:26;99049.41;;;34.96;25.49
16331;BME280;8275;48.206;16.340;2022-08-01T10:25:04;99041.00;;;34.86;25.80
16331;BME280;8275;48.206;16.340;2022-08-01T10:27:33;99047.56;;;34.79;26.11
16331;BME280;8275;48.206;16.340;2022-08-01T10:30:07;99033.78;;;34.78;26.40
16331;BME280;8275;48.206;16.340;2022-08-01T10:32:48;99042.69;;;34.80;26.48
16331;BME280;8275;48.206;16.340;2022-08-01T10:35:17;99038.63;;;34.81;26.17
16331;BME280;8275;48.206;16.340;2022-08-01T10:38:07;99034.50;;;34.85;26.06
16331;BME280;8275;48.206;16.340;2022-08-01T10:40:40;99038.94;;;34.86;26.06
16331;BME280;8275;48.206;16.340;2022-08-01T10:43:10;99028.72;;;34.92;26.11
16331;BME280;8275;48.206;16.340;2022-08-01T10:45:40;99021.69;;;35.00;25.97
16331;BME280;8275;48.206;16.340;2022-08-01T10:48:16;99022.41;;;35.11;26.18
16331;BME280;8275;48.206;16.340;2022-08-01T10:50:49;99017.13;;;35.40;26.06
16331;BME280;8275;48.206;16.340;2022-08-01T10:53:23;99019.59;;;35.68;25.47
16331;BME280;8275;48.206;16.340;2022-08-01T10:56:01;99020.63;;;35.81;25.01
16331;BME280;8275;48.206;16.340;2022-08-01T10:58:33;99010.88;;;35.79;25.06
16331;BME280;8275;48.206;16.340;2022-08-01T11:01:21;99009.09;;;35.88;24.68
16331;BME280;8275;48.206;16.340;2022-08-01T11:04:06;99009.03;;;36.19;24.80
16331;BME280;8275;48.206;16.340;2022-08-01T11:06:54;99011.06;;;36.65;23.53
16331;BME280;8275;48.206;16.340;2022-08-01T11:09:37;99005.81;;;37.02;23.34
16331;BME280;8275;48.206;16.340;2022-08-01T11:12:09;99012.91;;;37.34;22.13
16331;BME280;8275;48.206;16.340;2022-08-01T11:15:20;99001.41;;;37.73;22.29
16331;BME280;8275;48.206;16.340;2022-08-01T11:18:03;99004.38;;;38.02;22.47
16331;BME280;8275;48.206;16.340;2022-08-01T11:20:35;98991.69;;;38.19;21.86
16331;BME280;8275;48.206;16.340;2022-08-01T11:23:18;98994.75;;;38.28;22.47
16331;BME280;8275;48.206;16.340;2022-08-01T11:26:22;98988.53;;;38.45;22.22
16331;BME280;8275;48.206;16.340;2022-08-01T11:29:15;98987.88;;;38.70;21.90
16331;BME280;8275;48.206;16.340;2022-08-01T11:31:49;98982.09;;;38.86;21.77
16331;BME280;8275;48.206;16.340;2022-08-01T11:34:19;98992.97;;;38.91;21.15
16331;BME280;8275;48.206;16.340;2022-08-01T11:36:48;98989.88;;;38.86;20.45
16331;BME280;8275;48.206;16.340;2022-08-01T11:39:36;98987.06;;;38.70;20.60
16331;BME280;8275;48.206;16.340;2022-08-01T11:42:20;98980.66;;;38.49;20.58
16331;BME280;8275;48.206;16.340;2022-08-01T11:44:53;98985.31;;;38.43;20.66
16331;BME280;8275;48.206;16.340;2022-08-01T11:47:45;98973.72;;;38.34;20.81
16331;BME280;8275;48.206;16.340;2022-08-01T11:50:35;98981.28;;;38.25;21.26
16331;BME280;8275;48.206;16.340;2022-08-01T11:53:07;98992.84;;;38.21;21.43
16331;BME280;8275;48.206;16.340;2022-08-01T11:55:45;98988.53;;;38.13;20.73
16331;BME280;8275;48.206;16.340;2022-08-01T11:58:22;99005.19;;;38.02;21.00
16331;BME280;8275;48.206;16.340;2022-08-01T12:00:58;99002.31;;;37.86;20.95
16331;BME280;8275;48.206;16.340;2022-08-01T12:03:30;98998.78;;;37.62;21.18
16331;BME280;8275;48.206;16.340;2022-08-01T12:06:00;99012.78;;;37.41;21.35
16331;BME280;8275;48.206;16.340;2022-08-01T12:08:33;99005.16;;;37.14;21.35
16331;BME280;8275;48.206;16.340;2022-08-01T12:11:04;99006.97;;;36.85;21.91
16331;BME280;8275;48.206;16.340;2022-08-01T12:13:41;99006.84;;;36.49;21.95
16331;BME280;8275;48.206;16.340;2022-08-01T12:16:11;99006.59;;;36.17;22.38
16331;BME280;8275;48.206;16.340;2022-08-01T12:18:41;99011.56;;;35.86;22.75
16331;BME280;8275;48.206;16.340;2022-08-01T12:21:10;99012.81;;;35.59;23.01
16331;BME280;8275;48.206;16.340;2022-08-01T12:23:38;99025.78;;;35.33;23.21
16331;BME280;8275;48.206;16.340;2022-08-01T12:26:07;99018.75;;;35.11;23.55
16331;BME280;8275;48.206;16.340;2022-08-01T12:28:57;99021.03;;;34.89;24.06
16331;BME280;8275;48.206;16.340;2022-08-01T12:31:34;99026.19;;;34.64;23.92
16331;BME280;8275;48.206;16.340;2022-08-01T12:34:25;99025.25;;;34.33;24.10
16331;BME280;8275;48.206;16.340;2022-08-01T12:36:56;99038.03;;;34.15;23.75
16331;BME280;8275;48.206;16.340;2022-08-01T12:39:33;99028.41;;;33.94;23.86
16331;BME280;8275;48.206;16.340;2022-08-01T12:42:07;99025.28;;;33.78;23.91
16331;BME280;8275;48.206;16.340;2022-08-01T12:44:40;99026.59;;;33.67;24.21
16331;BME280;8275;48.206;16.340;2022-08-01T12:47:10;99021.00;;;33.56;23.87
16331;BME280;8275;48.206;16.340;2022-08-01T12:49:42;99025.50;;;33.43;25.10
16331;BME280;8275;48.206;16.340;2022-08-01T12:52:12;99036.53;;;33.27;25.50
16331;BME280;8275;48.206;16.340;2022-08-01T12:55:00;99032.19;;;33.05;25.98
16331;BME280;8275;48.206;16.340;2022-08-01T12:57:32;99017.59;;;32.96;27.17
16331;BME280;8275;48.206;16.340;2022-08-01T13:00:13;99018.06;;;32.77;27.39
16331;BME280;8275;48.206;16.340;2022-08-01T13:02:42;99011.25;;;32.56;27.91
16331;BME280;8275;48.206;16.340;2022-08-01T13:05:12;99012.47;;;32.41;27.90
16331;BME280;8275;48.206;16.340;2022-08-01T13:07:48;99012.47;;;32.31;28.63
16331;BME280;8275;48.206;16.340;2022-08-01T13:10:26;99017.75;;;32.25;28.39
16331;BME280;8275;48.206;16.340;2022-08-01T13:12:57;99011.97;;;32.85;28.65
16331;BME280;8275;48.206;16.340;2022-08-01T13:15:29;98994.75;;;33.89;27.95
16331;BME280;8275;48.206;16.340;2022-08-01T13:18:01;98987.72;;;35.20;27.53
16331;BME280;8275;48.206;16.340;2022-08-01T13:20:32;98982.19;;;36.59;26.66
16331;BME280;8275;48.206;16.340;2022-08-01T13:23:14;98974.53;;;38.03;25.85
16331;BME280;8275;48.206;16.340;2022-08-01T13:26:03;98967.34;;;39.54;24.57
16331;BME280;8275;48.206;16.340;2022-08-01T13:28:32;98966.69;;;40.69;22.88
16331;BME280;8275;48.206;16.340;2022-08-01T13:31:06;98968.22;;;41.78;22.09